Time;durP1;ratioP1;P1;durP2;ratioP2;P2;SDS_P1;SDS_P2;PMS_P1;PMS_P2;Temp;Humidity;BMP_temperature;BMP_pressure;BME280_temperature;BME280_humidity;BME280_pressure;Samples;Min_cycle;Max_cycle;Signal;HPM_P1;HPM_P2
2022/09/25 00:01:24;;;;;;;19.30;13.60;;;;;;;6.82;91.13;97700.69;105460;1282;24246;-89
2022/09/25 00:03:53;;;;;;;13.10;11.80;;;;;;;6.87;91.01;97699.31;105499;1282;25298;-90
2022/09/25 00:06:24;;;;;;;15.50;13.40;;;;;;;6.92;90.97;97697.83;105547;1282;24293;-89
2022/09/25 00:08:52;;;;;;;15.60;14.00;;;;;;;6.98;91.15;97697.04;105568;1283;22551;-90
2022/09/25 00:11:23;;;;;;;15.90;14.50;;;;;;;7.01;90.83;97699.00;105588;1282;22563;-90
2022/09/25 00:13:52;;;;;;;20.80;13.50;;;;;;;6.98;91.20;97694.46;105461;1284;22570;-87
2022/09/25 00:16:24;;;;;;;16.30;13.10;;;;;;;6.95;91.37;97691.81;105418;1284;23465;-89
2022/09/25 00:21:39;;;;;;;13.60;12.20;;;;;;;6.96;91.38;97691.69;105545;1282;22715;-90
2022/09/25 00:24:10;;;;;;;15.00;13.70;;;;;;;7.01;91.39;97686.29;105720;1283;24015;-91
2022/09/25 00:26:41;;;;;;;16.40;14.80;;;;;;;7.06;91.44;97681.98;105579;1282;24765;-90
2022/09/25 00:29:16;;;;;;;15.40;13.80;;;;;;;7.10;91.44;97682.05;105623;1283;22574;-90
2022/09/25 00:31:44;;;;;;;19.20;13.90;;;;;;;7.14;91.43;97678.52;105565;1284;22630;-90
2022/09/25 00:34:12;;;;;;;18.30;16.50;;;;;;;7.20;91.57;97676.42;105488;1284;25459;-89
2022/09/25 00:36:40;;;;;;;22.70;20.60;;;;;;;7.30;91.64;97678.05;105549;1283;25254;-89
2022/09/25 00:39:08;;;;;;;21.10;18.90;;;;;;;7.42;92.06;97673.55;105542;1282;22607;-88
2022/09/25 00:41:36;;;;;;;19.50;17.50;;;;;;;7.55;91.94;97668.87;105574;1283;22550;-88
2022/09/25 00:44:43;;;;;;;18.70;16.70;;;;;;;7.66;91.99;97668.11;105540;1283;24185;-90
2022/09/25 00:47:19;;;;;;;16.90;15.30;;;;;;;7.74;92.01;97669.13;105506;1283;22569;-88
2022/09/25 00:49:48;;;;;;;18.60;16.00;;;;;;;7.81;92.18;97667.08;105487;1284;22537;-87
2022/09/25 00:52:16;;;;;;;16.40;14.60;;;;;;;7.84;91.75;97668.48;105530;1283;25449;-88
2022/09/25 00:54:51;;;;;;;15.60;14.10;;;;;;;7.91;91.93;97664.86;105364;1283;22554;-89
2022/09/25 00:57:22;;;;;;;16.40;14.70;;;;;;;7.98;91.74;97664.83;105489;1282;25449;-88
2022/09/25 00:59:54;;;;;;;15.90;14.40;;;;;;;8.03;91.74;97663.33;105498;1282;26524;-90
2022/09/25 01:02:29;;;;;;;16.10;14.40;;;;;;;8.05;91.85;97658.94;105489;1284;24290;-90
2022/09/25 01:05:00;;;;;;;15.00;13.50;;;;;;;8.07;92.25;97655.17;105493;1284;25328;-88
2022/09/25 01:07:32;;;;;;;16.80;14.40;;;;;;;8.09;91.85;97652.55;105531;1283;22729;-90
2022/09/25 01:10:02;;;;;;;16.00;14.00;;;;;;;8.14;92.01;97653.62;105545;1284;25484;-90
2022/09/25 01:12:30;;;;;;;15.80;14.20;;;;;;;8.20;92.42;97651.66;105504;1282;22738;-89
2022/09/25 01:14:58;;;;;;;15.30;13.70;;;;;;;8.27;92.04;97651.95;105461;1284;24268;-90
2022/09/25 01:17:40;;;;;;;15.90;14.40;;;;;;;8.31;92.07;97653.25;105558;1282;22538;-88
2022/09/25 01:20:22;;;;;;;15.20;13.60;;;;;;;8.31;91.80;97651.31;105547;1282;25587;-90
2022/09/25 01:23:08;;;;;;;14.60;13.20;;;;;;;8.34;92.12;97654.12;105558;1282;25478;-90
2022/09/25 01:26:19;;;;;;;14.60;12.60;;;;;;;8.37;91.77;97650.59;105517;1284;22554;-90
2022/09/25 01:29:30;;;;;;;14.20;12.70;;;;;;;8.40;92.07;97647.45;105277;1284;25242;-88
2022/09/25 01:32:16;;;;;;;15.30;13.60;;;;;;;8.45;92.25;97646.77;105528;1284;22597;-89
2022/09/25 01:35:00;;;;;;;14.70;13.10;;;;;;;8.48;92.30;97646.81;105517;1284;23386;-89
2022/09/25 01:37:47;;;;;;;16.50;13.00;;;;;;;8.52;92.31;97649.42;106334;1282;22702;-86
2022/09/25 01:40:24;;;;;;;15.50;13.20;;;;;;;8.59;92.38;97644.44;107228;1282;22545;-89
2022/09/25 01:43:33;;;;;;;15.40;12.40;;;;;;;8.68;92.52;97648.92;106688;1282;22554;-89
2022/09/25 01:46:10;;;;;;;15.10;13.70;;;;;;;8.74;92.36;97646.20;106369;1284;24356;-88
2022/09/25 01:48:41;;;;;;;13.80;12.50;;;;;;;8.75;92.73;97644.36;106167;1284;22707;-90
2022/09/25 01:51:19;;;;;;;16.00;12.90;;;;;;;8.77;92.95;97644.64;105677;1283;22779;-90
2022/09/25 01:53:55;;;;;;;13.90;12.60;;;;;;;8.80;92.59;97646.36;105539;1282;23962;-89
2022/09/25 01:56:32;;;;;;;14.20;12.70;;;;;;;8.86;92.71;97646.42;105680;1283;24254;-90
2022/09/25 01:59:39;;;;;;;14.60;13.10;;;;;;;8.92;92.65;97644.89;105548;1284;24293;-89
2022/09/25 02:02:12;;;;;;;15.00;13.60;;;;;;;8.96;92.46;97643.21;105524;1284;22563;-88
2022/09/25 02:05:06;;;;;;;14.30;12.90;;;;;;;8.98;92.77;97643.88;105592;1284;23376;-89
2022/09/25 02:07:39;;;;;;;14.10;11.50;;;;;;;9.00;92.54;97647.17;105457;1284;22543;-90
2022/09/25 02:10:35;;;;;;;13.40;12.10;;;;;;;9.02;92.38;97645.73;105528;1284;24230;-88
2022/09/25 02:13:27;;;;;;;13.40;12.10;;;;;;;9.06;92.13;97646.59;105447;1284;22570;-87
2022/09/25 02:16:08;;;;;;;13.90;12.50;;;;;;;9.12;92.34;97650.14;105391;1284;24375;-88
2022/09/25 02:21:42;;;;;;;14.20;12.30;;;;;;;9.13;92.20;97644.16;105370;1283;22547;-87
2022/09/25 02:24:29;;;;;;;13.80;12.40;;;;;;;9.14;92.33;97645.92;105426;1284;22528;-89
2022/09/25 02:26:57;;;;;;;17.20;13.20;;;;;;;9.16;92.12;97641.91;105413;1284;22565;-88
2022/09/25 02:29:25;;;;;;;14.20;12.70;;;;;;;9.17;92.13;97646.29;105478;1282;22615;-89
2022/09/25 02:31:58;;;;;;;14.60;11.90;;;;;;;9.18;92.22;97644.67;105492;1282;22546;-89
2022/09/25 02:34:26;;;;;;;14.00;12.50;;;;;;;9.18;91.96;97643.11;105464;1283;23175;-88
2022/09/25 02:36:55;;;;;;;14.60;12.80;;;;;;;9.15;92.17;97645.41;105431;1282;22531;-88
2022/09/25 02:39:27;;;;;;;15.50;11.90;;;;;;;9.10;92.01;97640.66;105431;1282;24082;-89
2022/09/25 02:42:36;;;;;;;13.80;12.40;;;;;;;9.07;91.63;97639.80;105489;1282;22576;-90
2022/09/25 02:45:19;;;;;;;12.30;11.00;;;;;;;9.07;91.75;97641.80;105508;1283;26582;-89
2022/09/25 02:47:50;;;;;;;12.80;11.50;;;;;;;9.11;91.85;97645.64;105457;1282;24423;-89
2022/09/25 02:50:53;;;;;;;15.30;11.80;;;;;;;9.14;91.77;97641.40;105479;1282;24477;-90
2022/09/25 02:53:24;;;;;;;13.60;12.30;;;;;;;9.15;92.17;97636.27;105458;1283;22700;-88
2022/09/25 02:56:24;;;;;;;12.30;11.10;;;;;;;9.16;92.00;97638.23;105481;1282;25476;-86
2022/09/25 02:58:57;;;;;;;13.30;11.70;;;;;;;9.09;91.54;97636.48;104757;1291;23943;-88
2022/09/25 03:01:30;;;;;;;12.50;10.80;;;;;;;9.04;91.44;97635.70;104820;1290;25592;-88
2022/09/25 03:04:00;;;;;;;12.60;10.90;;;;;;;8.99;91.44;97632.42;104768;1290;22560;-88
2022/09/25 03:06:29;;;;;;;12.90;11.60;;;;;;;8.97;91.44;97634.27;104853;1290;22665;-88
2022/09/25 03:08:59;;;;;;;12.40;11.00;;;;;;;8.97;91.57;97626.10;104585;1291;22670;-87
2022/09/25 03:11:27;;;;;;;13.60;10.60;;;;;;;8.97;91.72;97622.45;104878;1290;22570;-89
2022/09/25 03:14:01;;;;;;;11.90;10.80;;;;;;;8.97;91.74;97621.80;104782;1290;22562;-88
2022/09/25 03:16:35;;;;;;;12.10;10.90;;;;;;;8.96;91.54;97621.81;104787;1290;22578;-89
2022/09/25 03:19:03;;;;;;;10.90;9.70;;;;;;;8.94;91.65;97619.22;104813;1290;25374;-87
2022/09/25 03:21:31;;;;;;;13.20;10.10;;;;;;;8.95;91.56;97616.96;106199;1290;22817;-88
2022/09/25 03:24:28;;;;;;;11.60;10.50;;;;;;;8.95;91.72;97612.76;105723;1290;24232;-90
2022/09/25 03:26:56;;;;;;;13.20;11.10;;;;;;;8.94;91.66;97613.53;104699;1290;24317;-89
2022/09/25 03:29:24;;;;;;;12.70;11.30;;;;;;;8.94;91.70;97613.90;104716;1290;22645;-88
2022/09/25 03:31:52;;;;;;;15.20;10.40;;;;;;;8.95;91.82;97613.08;104717;1290;23958;-87
2022/09/25 03:34:20;;;;;;;14.30;10.10;;;;;;;8.98;91.86;97612.70;104873;1284;25368;-86
2022/09/25 03:36:48;;;;;;;11.30;10.00;;;;;;;9.00;91.34;97615.30;105426;1282;25398;-88
2022/09/25 03:39:19;;;;;;;11.00;10.00;;;;;;;9.00;91.59;97611.48;105423;1282;24114;-90
2022/09/25 03:41:47;;;;;;;11.30;10.10;;;;;;;8.99;91.85;97614.71;105431;1282;22615;-88
2022/09/25 03:44:15;;;;;;;12.90;10.60;;;;;;;8.99;91.60;97613.82;105453;1282;22582;-89
2022/09/25 03:46:42;;;;;;;12.60;10.20;;;;;;;8.98;91.85;97612.27;105405;1282;23410;-87
2022/09/25 03:49:11;;;;;;;11.30;10.10;;;;;;;8.99;91.35;97603.86;105450;1282;25375;-88
2022/09/25 03:51:40;;;;;;;12.00;9.60;;;;;;;9.00;91.46;97602.55;105424;1282;23985;-86
2022/09/25 03:54:08;;;;;;;12.90;10.90;;;;;;;9.04;91.52;97604.44;105468;1282;24294;-88
2022/09/25 03:56:37;;;;;;;10.70;9.60;;;;;;;9.03;91.45;97603.38;108290;1282;23274;-86
2022/09/25 03:59:05;;;;;;;11.30;10.00;;;;;;;9.02;91.21;97605.01;108841;1282;22601;-86
2022/09/25 04:01:33;;;;;;;10.70;9.60;;;;;;;9.01;91.29;97604.21;106495;1282;24009;-89
2022/09/25 04:04:01;;;;;;;11.60;10.40;;;;;;;9.01;91.48;97601.84;105371;1282;24352;-89
2022/09/25 04:06:30;;;;;;;11.80;10.20;;;;;;;9.05;91.42;97602.30;105471;1282;22711;-87
2022/09/25 04:08:58;;;;;;;11.80;9.90;;;;;;;9.09;91.08;97599.23;105408;1282;22569;-87
2022/09/25 04:11:26;;;;;;;11.60;10.50;;;;;;;9.12;91.24;97593.70;105415;1282;25494;-89
2022/09/25 04:13:55;;;;;;;11.20;10.00;;;;;;;9.12;91.20;97596.45;105430;1282;22736;-88
2022/09/25 04:16:23;;;;;;;11.40;10.30;;;;;;;9.11;91.53;97598.98;105435;1282;22643;-91
2022/09/25 04:18:51;;;;;;;10.40;9.30;;;;;;;9.04;91.07;97601.45;106925;1282;22682;-88
2022/09/25 04:21:19;;;;;;;14.80;10.00;;;;;;;8.96;91.34;97606.98;108001;1282;22581;-86
2022/09/25 04:24:46;;;;;;;14.70;9.50;;;;;;;8.92;91.05;97606.95;108441;1282;22699;-86
2022/09/25 04:26:35;;;;;;;12.30;9.30;;;;;;;8.93;91.51;97604.45;108409;1282;23206;-88
2022/09/25 04:29:04;;;;;;;12.90;10.70;;;;;;;8.96;91.36;97602.24;106572;1282;22571;-87
2022/09/25 04:31:32;;;;;;;12.10;9.80;;;;;;;8.99;91.52;97600.77;105429;1282;25340;-88
2022/09/25 04:34:01;;;;;;;10.50;9.40;;;;;;;8.99;91.34;97603.23;105443;1282;25332;-88
2022/09/25 04:36:28;;;;;;;10.90;9.70;;;;;;;8.95;90.94;97604.91;105442;1282;24219;-87
2022/09/25 04:38:56;;;;;;;10.50;9.00;;;;;;;8.93;91.25;97603.05;105511;1282;24221;-87
2022/09/25 04:41:28;;;;;;;12.10;9.00;;;;;;;8.95;91.08;97607.86;105444;1282;22641;-87
2022/09/25 04:43:56;;;;;;;10.70;9.40;;;;;;;8.96;91.26;97607.95;105460;1283;22690;-89
2022/09/25 04:46:24;;;;;;;11.50;10.40;;;;;;;8.96;91.48;97604.02;105442;1283;22564;-88
2022/09/25 04:48:52;;;;;;;11.20;10.10;;;;;;;8.96;91.35;97602.63;105722;1282;22708;-88
2022/09/25 04:51:20;;;;;;;12.20;8.70;;;;;;;8.97;91.50;97597.84;105820;1282;22564;-88
2022/09/25 04:54:48;;;;;;;9.40;8.50;;;;;;;8.96;91.05;97602.52;105421;1282;24264;-89
2022/09/25 04:58:37;;;;;;;13.10;10.10;;;;;;;8.90;91.33;97602.70;105420;1283;25254;-87
2022/09/25 05:02:25;;;;;;;12.10;10.90;;;;;;;8.85;91.65;97605.94;105404;1282;22543;-86
2022/09/25 05:06:14;;;;;;;12.30;11.00;;;;;;;8.89;91.98;97606.78;106971;1282;25361;-89
2022/09/25 05:10:03;;;;;;;11.90;9.80;;;;;;;9.00;92.23;97606.27;105510;1282;25246;-88
2022/09/25 05:13:51;;;;;;;11.30;9.60;;;;;;;9.15;91.86;97613.65;104800;1288;22646;-87
2022/09/25 05:17:40;;;;;;;11.90;10.80;;;;;;;9.23;91.79;97614.30;104766;1288;22562;-89
2022/09/25 05:20:28;;;;;;;12.30;10.90;;;;;;;9.21;91.62;97617.20;104824;1288;25411;-89
2022/09/25 05:22:57;;;;;;;11.70;10.50;;;;;;;9.23;91.89;97619.62;104815;1288;22573;-89
2022/09/25 05:25:26;;;;;;;15.20;13.40;;;;;;;9.27;91.64;97622.36;104834;1288;24549;-89
2022/09/25 05:27:57;;;;;;;19.30;15.10;;;;;;;9.29;91.42;97616.25;104814;1288;24227;-89
2022/09/25 05:30:27;;;;;;;15.60;14.00;;;;;;;9.34;91.72;97614.80;104874;1288;22545;-90
2022/09/25 05:32:59;;;;;;;14.40;13.00;;;;;;;9.39;91.69;97616.83;104838;1288;24549;-90
2022/09/25 05:35:29;;;;;;;13.00;11.60;;;;;;;9.42;91.84;97617.67;104833;1288;25337;-87
2022/09/25 05:37:57;;;;;;;12.70;11.60;;;;;;;9.44;91.91;97615.00;104742;1288;24429;-90
2022/09/25 05:40:26;;;;;;;11.40;9.60;;;;;;;9.51;91.89;97614.65;104785;1288;25322;-89
2022/09/25 05:42:54;;;;;;;12.10;10.20;;;;;;;9.61;92.23;97618.34;104815;1288;22575;-89
2022/09/25 05:45:22;;;;;;;10.40;9.20;;;;;;;9.70;92.21;97620.24;104776;1288;22565;-87
2022/09/25 05:48:01;;;;;;;11.00;9.80;;;;;;;9.77;91.92;97618.66;104830;1288;24267;-89
2022/09/25 05:50:33;;;;;;;14.10;11.70;;;;;;;9.89;92.40;97619.29;105217;1282;26523;-90
2022/09/25 05:53:04;;;;;;;12.90;11.60;;;;;;;9.97;92.01;97621.69;105512;1282;22682;-88
2022/09/25 05:55:32;;;;;;;13.00;11.60;;;;;;;10.09;92.56;97626.20;105462;1282;22569;-90
2022/09/25 05:58:03;;;;;;;11.90;10.60;;;;;;;10.23;92.51;97621.58;105543;1282;22553;-90
2022/09/25 06:00:32;;;;;;;13.00;11.50;;;;;;;10.37;92.35;97622.47;106654;1282;22630;-85
2022/09/25 06:03:00;;;;;;;13.90;12.60;;;;;;;10.53;92.49;97622.28;105736;1282;23941;-89
2022/09/25 06:05:29;;;;;;;15.20;13.70;;;;;;;10.64;92.22;97622.46;105368;1282;22582;-90
2022/09/25 06:07:57;;;;;;;14.20;13.00;;;;;;;10.73;92.55;97618.48;105327;1282;22588;-86
2022/09/25 06:10:25;;;;;;;14.50;13.20;;;;;;;10.83;92.48;97611.16;105463;1282;25293;-89
2022/09/25 06:13:00;;;;;;;12.50;11.20;;;;;;;10.94;92.45;97610.77;105410;1282;22587;-89
2022/09/25 06:15:36;;;;;;;13.20;11.00;;;;;;;11.03;92.00;97609.69;105403;1282;22825;-89
2022/09/25 06:18:06;;;;;;;11.60;10.50;;;;;;;11.12;92.02;97608.84;105469;1282;25253;-88
2022/09/25 06:20:35;;;;;;;16.40;11.00;;;;;;;11.17;91.97;97608.91;105499;1282;25451;-89
2022/09/25 06:23:03;;;;;;;11.90;10.80;;;;;;;11.21;92.04;97609.64;105411;1282;24278;-89
2022/09/25 06:25:31;;;;;;;17.30;15.40;;;;;;;11.25;92.15;97605.80;105442;1282;25249;-90
2022/09/25 06:28:00;;;;;;;16.60;15.00;;;;;;;11.26;91.97;97606.10;105384;1282;22612;-90
2022/09/25 06:30:33;;;;;;;14.60;13.20;;;;;;;11.29;91.96;97607.27;105387;1282;22850;-89
2022/09/25 06:33:08;;;;;;;16.70;15.20;;;;;;;11.33;91.87;97610.01;105439;1282;22570;-89
2022/09/25 06:35:41;;;;;;;17.00;15.30;;;;;;;11.39;91.88;97606.73;105420;1282;25271;-90
2022/09/25 06:38:10;;;;;;;25.40;22.90;;;;;;;11.41;91.67;97607.31;105448;1282;25313;-88
2022/09/25 06:40:40;;;;;;;24.50;22.30;;;;;;;11.39;91.60;97609.31;105405;1282;22541;-90
2022/09/25 06:43:11;;;;;;;30.80;28.00;;;;;;;11.40;91.77;97603.24;105467;1282;24427;-89
2022/09/25 06:45:39;;;;;;;31.40;28.40;;;;;;;11.42;91.74;97604.27;105469;1282;25359;-88
2022/09/25 06:48:17;;;;;;;29.70;26.90;;;;;;;11.48;91.80;97605.52;107273;1282;25928;-89
2022/09/25 06:50:49;;;;;;;30.10;27.50;;;;;;;11.52;91.59;97607.30;106286;1282;25305;-89
2022/09/25 06:53:19;;;;;;;26.40;23.90;;;;;;;11.53;91.66;97602.66;105406;1282;23619;-89
2022/09/25 06:55:47;;;;;;;26.60;24.10;;;;;;;11.51;91.56;97601.27;105344;1282;22569;-89
2022/09/25 06:58:20;;;;;;;29.60;25.90;;;;;;;11.48;91.69;97598.65;105415;1282;24413;-89
2022/09/25 07:00:51;;;;;;;30.70;27.70;;;;;;;11.44;91.62;97597.52;105498;1282;22712;-91
2022/09/25 07:06:08;;;;;;;30.00;27.20;;;;;;;11.45;91.55;97595.56;105368;1282;22549;-89
2022/09/25 07:08:37;;;;;;;34.00;30.60;;;;;;;11.43;91.63;97597.23;105433;1282;22611;-89
2022/09/25 07:11:05;;;;;;;35.00;31.80;;;;;;;11.37;91.62;97606.06;105511;1283;25360;-91
2022/09/25 07:13:35;;;;;;;32.10;29.10;;;;;;;11.32;91.77;97611.21;105554;1282;22618;-91
2022/09/25 07:16:07;;;;;;;27.40;24.80;;;;;;;11.29;91.73;97614.53;105223;1284;22560;-90
2022/09/25 07:18:34;;;;;;;26.50;24.00;;;;;;;11.26;91.69;97615.52;105448;1282;22714;-90
2022/09/25 07:21:05;;;;;;;27.70;25.20;;;;;;;11.25;91.85;97620.79;105790;1282;25301;-88
2022/09/25 07:23:34;;;;;;;22.50;20.20;;;;;;;11.25;91.84;97622.85;106244;1282;22604;-89
2022/09/25 07:26:08;;;;;;;24.80;21.20;;;;;;;11.23;92.07;97620.58;106288;1282;25652;-89
2022/09/25 07:28:38;;;;;;;27.00;24.40;;;;;;;11.23;92.12;97622.88;106184;1282;25271;-89
2022/09/25 07:31:24;;;;;;;27.80;25.10;;;;;;;11.25;92.17;97619.02;107347;1282;22580;-91
2022/09/25 07:33:53;;;;;;;30.10;27.20;;;;;;;11.32;92.36;97618.06;107584;1281;22555;-91
2022/09/25 07:36:21;;;;;;;30.60;27.40;;;;;;;11.38;92.17;97619.36;106971;1282;23032;-91
2022/09/25 07:38:50;;;;;;;31.40;28.30;;;;;;;11.42;92.44;97623.47;105913;1282;22766;-91
2022/09/25 07:41:21;;;;;;;30.10;27.40;;;;;;;11.46;92.40;97624.67;106335;1282;23878;-91
2022/09/25 07:43:56;;;;;;;28.90;26.20;;;;;;;11.47;92.35;97620.26;106130;1282;25265;-89
2022/09/25 07:46:44;;;;;;;28.60;25.90;;;;;;;11.50;92.36;97624.33;105464;1282;22526;-86
2022/09/25 07:49:13;;;;;;;26.70;24.20;;;;;;;11.54;92.48;97622.52;105493;1282;24318;-86
2022/09/25 07:51:41;;;;;;;28.50;25.70;;;;;;;11.61;92.76;97625.17;105367;1282;26692;-87
2022/09/25 07:54:09;;;;;;;30.40;27.60;;;;;;;11.69;92.84;97620.22;105372;1282;22677;-86
2022/09/25 07:56:37;;;;;;;29.50;26.80;;;;;;;11.73;92.77;97622.58;105456;1282;24112;-86
2022/09/25 07:59:05;;;;;;;28.30;24.70;;;;;;;11.77;93.09;97618.09;105397;1282;22583;-86
2022/09/25 08:01:34;;;;;;;26.80;23.70;;;;;;;11.83;93.09;97620.58;105629;1282;23269;-87
2022/09/25 08:04:09;;;;;;;27.20;24.20;;;;;;;11.86;92.70;97615.98;105411;1282;25245;-88
2022/09/25 08:06:37;;;;;;;23.70;21.40;;;;;;;11.88;92.75;97603.23;105476;1282;24245;-89
2022/09/25 08:09:05;;;;;;;24.70;22.30;;;;;;;11.88;92.61;97600.48;105611;1282;22561;-90
2022/09/25 08:11:38;;;;;;;22.10;18.70;;;;;;;11.87;92.62;97600.67;105654;1282;24636;-90
2022/09/25 08:14:05;;;;;;;28.90;26.00;;;;;;;11.87;92.85;97607.91;105430;1281;25361;-90
2022/09/25 08:16:33;;;;;;;32.50;26.80;;;;;;;11.89;92.81;97603.77;105426;1282;24091;-87
2022/09/25 08:19:02;;;;;;;28.30;25.50;;;;;;;11.93;93.11;97600.77;105132;1282;24325;-88
2022/09/25 08:21:31;;;;;;;30.70;27.80;;;;;;;12.00;92.95;97598.60;105746;1282;22553;-89
2022/09/25 08:23:59;;;;;;;29.90;27.00;;;;;;;12.03;93.04;97592.21;105624;1282;22723;-89
2022/09/25 08:26:29;;;;;;;30.10;26.90;;;;;;;12.06;93.08;97594.30;105695;1282;22566;-89
2022/09/25 08:28:58;;;;;;;29.50;26.70;;;;;;;12.06;92.88;97593.84;107833;1282;22612;-87
2022/09/25 08:31:26;;;;;;;33.50;30.40;;;;;;;12.02;92.81;97587.43;108181;1282;22619;-92
2022/09/25 08:33:54;;;;;;;34.00;31.00;;;;;;;12.00;92.77;97580.08;106001;1282;22854;-91
2022/09/25 08:36:22;;;;;;;30.20;27.20;;;;;;;12.01;92.70;97586.13;106342;1281;22566;-93
2022/09/25 08:38:56;;;;;;;25.80;23.20;;;;;;;11.98;92.49;97590.32;106986;1282;22655;-92
2022/09/25 08:41:36;;;;;;;22.80;20.60;;;;;;;11.94;92.77;97588.54;108234;1281;22602;-90
2022/09/25 08:44:26;;;;;;;19.70;17.80;;;;;;;11.95;92.69;97586.73;107982;1282;23408;-92
2022/09/25 08:50:15;;;;;;;19.80;16.00;;;;;;;12.02;92.83;97587.33;107058;1282;22690;-93
2022/09/25 08:52:52;;;;;;;18.90;16.80;;;;;;;12.02;92.66;97587.81;107230;1282;22554;-94
2022/09/25 08:58:29;;;;;;;19.30;15.40;;;;;;;11.99;92.50;97583.52;106180;1282;24233;-91
2022/09/25 09:01:05;;;;;;;20.70;18.60;;;;;;;11.96;92.64;97582.69;106031;1282;22570;-91
2022/09/25 09:03:47;;;;;;;21.40;19.30;;;;;;;11.97;92.74;97582.34;105770;1282;22820;-93
2022/09/25 09:06:17;;;;;;;28.80;26.10;;;;;;;12.02;92.91;97579.10;105934;1282;23962;-91
2022/09/25 09:08:52;;;;;;;38.10;34.40;;;;;;;12.08;92.68;97575.17;105516;1282;24089;-91
2022/09/25 09:11:28;;;;;;;45.60;41.30;;;;;;;12.06;92.41;97565.66;105603;1282;24093;-91
2022/09/25 09:14:03;;;;;;;33.80;30.30;;;;;;;12.01;92.20;97564.56;105898;1282;24441;-93
2022/09/25 09:16:42;;;;;;;54.90;49.50;;;;;;;11.98;92.60;97562.92;105798;1282;22609;-90
2022/09/25 09:19:11;;;;;;;30.30;25.80;;;;;;;12.03;92.81;97559.83;105845;1282;24230;-93
2022/09/25 09:22:08;;;;;;;27.00;24.10;;;;;;;12.07;92.60;97557.92;105812;1281;24770;-90
2022/09/25 09:24:51;;;;;;;23.00;20.60;;;;;;;12.06;92.49;97558.21;105969;1282;25614;-93
2022/09/25 09:27:37;;;;;;;22.40;20.00;;;;;;;12.06;92.52;97560.59;105730;1282;22541;-89
2022/09/25 09:30:17;;;;;;;23.30;20.90;;;;;;;12.07;92.71;97564.02;105599;1282;23757;-91
2022/09/25 09:33:11;;;;;;;23.90;20.30;;;;;;;12.11;92.81;97561.34;105594;1282;24423;-90
2022/09/25 09:36:11;;;;;;;51.20;45.70;;;;;;;12.20;92.88;97560.40;105488;1282;25319;-91
2022/09/25 09:38:45;;;;;;;43.60;35.90;;;;;;;12.27;92.83;97554.85;105806;1281;24252;-91
2022/09/25 09:41:49;;;;;;;59.00;51.30;;;;;;;12.30;92.79;97556.35;105577;1282;22700;-91
2022/09/25 09:44:29;;;;;;;39.90;35.80;;;;;;;12.31;92.82;97559.55;106048;1282;24413;-90
2022/09/25 09:47:09;;;;;;;54.10;48.80;;;;;;;12.33;92.91;97555.70;105767;1282;22713;-90
2022/09/25 09:50:08;;;;;;;17.90;16.10;;;;;;;12.41;93.05;97559.30;105985;1282;25925;-89
2022/09/25 09:52:41;;;;;;;21.20;19.10;;;;;;;12.48;92.86;97555.00;105857;1282;22567;-92
2022/09/25 09:56:00;;;;;;;17.20;15.30;;;;;;;12.58;93.00;97556.33;105514;1282;135209;-90
2022/09/25 09:58:28;;;;;;;18.70;16.80;;;;;;;12.68;93.03;97556.21;105387;1293;24162;-92
2022/09/25 10:00:56;;;;;;;17.40;15.70;;;;;;;12.77;93.30;97557.98;105128;1291;24435;-88
2022/09/25 10:03:37;;;;;;;18.70;16.70;;;;;;;12.89;93.23;97555.67;105038;1290;24437;-92
2022/09/25 10:06:12;;;;;;;18.80;16.90;;;;;;;12.97;92.68;97558.14;104981;1291;22579;-92
2022/09/25 10:08:41;;;;;;;18.30;16.50;;;;;;;13.08;92.95;97557.91;105867;1291;22124;-88
2022/09/25 10:11:15;;;;;;;18.70;16.70;;;;;;;13.17;92.70;97555.36;107667;1291;22673;-89
2022/09/25 10:13:45;;;;;;;18.30;16.50;;;;;;;13.25;92.62;97552.04;105921;1291;22578;-92
2022/09/25 10:16:35;;;;;;;18.40;16.70;;;;;;;13.30;92.78;97547.80;105031;1291;23088;-92
2022/09/25 10:19:09;;;;;;;21.90;19.90;;;;;;;13.36;92.86;97548.35;104919;1291;22554;-92
2022/09/25 10:21:41;;;;;;;45.50;41.30;;;;;;;13.42;92.80;97546.50;104668;1291;22600;-90
2022/09/25 10:24:29;;;;;;;37.90;34.30;;;;;;;13.45;92.46;97546.59;104889;1291;22553;-91
2022/09/25 10:27:23;;;;;;;29.40;26.80;;;;;;;13.50;92.48;97543.34;104592;1291;22585;-92
2022/09/25 10:30:06;;;;;;;41.50;37.30;;;;;;;13.60;92.51;97544.21;104923;1291;22582;-90
2022/09/25 10:32:40;;;;;;;40.90;37.20;;;;;;;13.72;92.77;97544.64;104838;1291;22651;-91
2022/09/25 10:35:20;;;;;;;39.70;35.90;;;;;;;13.88;92.84;97542.48;105319;1282;24302;-89
2022/09/25 10:37:52;;;;;;;35.00;31.70;;;;;;;14.09;92.98;97538.84;105719;1282;24233;-90
2022/09/25 10:40:25;;;;;;;28.10;25.50;;;;;;;14.30;92.88;97533.06;105908;1282;22577;-89
2022/09/25 10:43:02;;;;;;;23.50;21.40;;;;;;;14.54;92.79;97528.41;105844;1282;22586;-87
2022/09/25 10:45:33;;;;;;;16.40;14.70;;;;;;;14.70;91.35;97524.29;105993;1282;25345;-89
2022/09/25 10:51:17;;;;;;;12.50;9.30;;;;;;;14.79;90.46;97528.98;105783;1282;24416;-86
2022/09/25 10:53:49;;;;;;;10.60;9.50;;;;;;;14.80;89.13;97527.89;105466;1282;24233;-85
2022/09/25 10:56:21;;;;;;;10.10;9.00;;;;;;;14.83;89.65;97533.02;105897;1282;22633;-85
2022/09/25 10:59:00;;;;;;;11.30;8.50;;;;;;;14.94;89.91;97526.55;105897;1281;22575;-82
2022/09/25 11:01:34;;;;;;;9.40;8.50;;;;;;;15.13;89.88;97530.30;105912;1282;22574;-83
2022/09/25 11:04:05;;;;;;;12.80;11.50;;;;;;;15.24;89.57;97523.08;105906;1282;24845;-80
2022/09/25 11:06:34;;;;;;;10.90;9.80;;;;;;;15.39;89.37;97520.08;105952;1282;23273;-81
2022/09/25 11:09:11;;;;;;;10.50;9.50;;;;;;;15.64;89.91;97517.12;105613;1282;23934;-83
2022/09/25 11:11:40;;;;;;;10.00;8.50;;;;;;;16.08;89.94;97513.24;105518;1282;24249;-85
2022/09/25 11:14:31;;;;;;;9.10;7.90;;;;;;;16.37;89.17;97511.65;105457;1282;24201;-84
2022/09/25 11:17:05;;;;;;;10.30;9.20;;;;;;;16.52;88.09;97514.09;105773;1282;22877;-84
2022/09/25 11:19:37;;;;;;;9.30;8.40;;;;;;;16.53;87.06;97511.34;105699;1282;22736;-86
2022/09/25 11:22:12;;;;;;;9.40;7.20;;;;;;;16.58;87.63;97513.39;105599;1282;22728;-79
2022/09/25 11:24:50;;;;;;;9.30;8.30;;;;;;;16.75;87.67;97507.91;105945;1282;25359;-81
2022/09/25 11:27:45;;;;;;;8.00;7.20;;;;;;;16.78;86.08;97510.09;105776;1282;22603;-80
2022/09/25 11:30:19;;;;;;;10.90;8.40;;;;;;;16.65;86.11;97517.40;105796;1282;22578;-80
2022/09/25 11:33:03;;;;;;;10.80;8.70;;;;;;;16.64;86.00;97518.46;105585;1282;25244;-79
2022/09/25 11:35:40;;;;;;;;;;;;;;;16.61;85.16;97516.21;105775;1282;22651;-80
2022/09/25 11:41:32;;;;;;;11.20;10.00;;;;;;;16.46;83.42;97507.56;105596;1282;24693;-84
2022/09/25 11:44:26;;;;;;;10.90;9.80;;;;;;;16.23;82.27;97504.52;105725;1282;24970;-80
2022/09/25 11:47:24;;;;;;;10.50;9.60;;;;;;;16.14;82.82;97498.98;105561;1282;23106;-79
2022/09/25 11:49:53;;;;;;;10.50;9.50;;;;;;;16.10;81.83;97497.41;106943;1281;22660;-80
2022/09/25 11:53:00;;;;;;;11.00;9.90;;;;;;;16.23;83.01;97497.60;105728;1282;23407;-79
2022/09/25 11:55:33;;;;;;;9.70;8.70;;;;;;;16.44;81.45;97494.67;105813;1282;22544;-79
2022/09/25 11:58:04;;;;;;;10.50;8.80;;;;;;;16.45;81.23;97487.97;105843;1282;26704;-80
2022/09/25 12:00:48;;;;;;;12.90;9.40;;;;;;;16.57;81.94;97476.16;105754;1281;22801;-81
2022/09/25 12:03:31;;;;;;;11.00;8.60;;;;;;;16.71;81.14;97472.73;105735;1282;22708;-83
2022/09/25 12:06:25;;;;;;;11.90;8.90;;;;;;;16.86;81.11;97471.50;105619;1282;25366;-79
2022/09/25 12:08:59;;;;;;;10.10;8.20;;;;;;;17.16;81.40;97463.98;105992;1282;22638;-80
2022/09/25 12:11:50;;;;;;;9.90;7.60;;;;;;;17.21;79.65;97461.55;105382;1282;22566;-81
2022/09/25 12:14:42;;;;;;;10.00;8.80;;;;;;;17.09;80.17;97463.36;105806;1282;22692;-82
2022/09/25 12:17:16;;;;;;;10.00;8.20;;;;;;;16.95;80.06;97461.02;105872;1282;23319;-84
2022/09/25 12:19:50;;;;;;;9.60;7.80;;;;;;;16.80;79.55;97458.14;105719;1282;22573;-82